Time;durP1;ratioP1;P1;durP2;ratioP2;P2;SDS_P1;SDS_P2;PMS_P1;PMS_P2;Temp;Humidity;BMP_temperature;BMP_pressure;BME280_temperature;BME280_humidity;BME280_pressure;Samples;Min_cycle;Max_cycle;Signal;HPM_P1;HPM_P2
2022/08/24 00:01:23;;;;;;;6.10;2.97;;;;;;;19.92;59.14;98223.03;5056412;28;20213;-70
2022/08/24 00:03:50;;;;;;;5.50;3.10;;;;;;;19.97;58.89;98220.31;5056423;28;20208;-70
2022/08/24 00:06:20;;;;;;;5.57;3.20;;;;;;;19.96;59.09;98226.81;5056397;28;20616;-70
2022/08/24 00:08:48;;;;;;;7.80;3.60;;;;;;;19.93;59.65;98221.94;5056263;28;20702;-70
2022/08/24 00:11:16;;;;;;;6.87;3.00;;;;;;;19.90;60.13;98214.38;5056433;28;20213;-70
2022/08/24 00:13:43;;;;;;;5.60;3.20;;;;;;;19.87;60.72;98220.34;5056142;28;20616;-70
2022/08/24 00:16:11;;;;;;;4.67;3.10;;;;;;;19.79;61.24;98215.50;5056552;28;20205;-70
2022/08/24 00:18:38;;;;;;;4.13;3.40;;;;;;;19.73;61.80;98218.50;5056150;28;20703;-71
2022/08/24 00:21:05;;;;;;;5.50;3.40;;;;;;;19.59;62.19;98216.34;5056474;28;20205;-70
2022/08/24 00:23:31;;;;;;;4.47;3.53;;;;;;;19.58;62.70;98215.84;5056307;28;20667;-70
2022/08/24 00:25:58;;;;;;;6.53;3.37;;;;;;;19.54;63.49;98208.28;5056320;28;20204;-70
2022/08/24 00:28:24;;;;;;;4.53;3.63;;;;;;;19.60;63.29;98212.56;5056319;28;20288;-70
2022/08/24 00:30:51;;;;;;;5.17;3.60;;;;;;;19.57;63.54;98217.72;5055932;28;20240;-70
2022/08/24 00:33:17;;;;;;;5.77;3.50;;;;;;;19.54;63.72;98220.97;5056199;28;20208;-70
2022/08/24 00:35:44;;;;;;;5.27;3.50;;;;;;;19.50;64.07;98215.28;5056014;28;20228;-70
2022/08/24 00:38:10;;;;;;;7.37;3.70;;;;;;;19.48;64.29;98220.16;5055885;28;20296;-70
2022/08/24 00:40:46;;;;;;;4.27;3.87;;;;;;;19.44;64.82;98215.56;5055986;28;20248;-70
2022/08/24 00:43:13;;;;;;;5.37;3.67;;;;;;;19.43;64.74;98209.38;5056006;28;20189;-70
2022/08/24 00:45:47;;;;;;;7.67;3.77;;;;;;;19.45;64.67;98209.91;5055767;28;20279;-70
2022/08/24 00:48:20;;;;;;;10.80;3.80;;;;;;;19.41;64.88;98216.91;5055563;28;20185;-70
2022/08/24 00:50:53;;;;;;;4.83;3.73;;;;;;;19.41;65.18;98218.84;5055826;28;20225;-70
2022/08/24 00:53:27;;;;;;;4.40;3.40;;;;;;;19.35;65.32;98215.31;5055852;28;20200;-70
2022/08/24 00:55:59;;;;;;;7.57;4.23;;;;;;;19.34;65.56;98210.19;5038252;28;20221;-70
2022/08/24 00:58:31;;;;;;;7.43;3.97;;;;;;;19.33;65.40;98214.78;5055461;28;20637;-70
2022/08/24 01:01:01;;;;;;;8.47;4.17;;;;;;;19.29;65.68;98211.03;5022190;28;20320;-70
2022/08/24 01:03:30;;;;;;;7.07;4.17;;;;;;;19.24;65.93;98213.72;5056118;28;20251;-70
2022/08/24 01:05:58;;;;;;;8.47;4.20;;;;;;;19.23;66.26;98209.38;5055291;28;20208;-70
2022/08/24 01:08:25;;;;;;;6.07;4.00;;;;;;;19.24;66.61;98213.72;5055580;28;20293;-70
2022/08/24 01:11:16;;;;;;;6.03;4.40;;;;;;;19.22;66.96;98212.31;5055435;28;20236;-70
2022/08/24 01:13:46;;;;;;;5.47;4.47;;;;;;;19.22;66.83;98215.00;5055490;28;20272;-70
2022/08/24 01:18:48;;;;;;;6.60;4.70;;;;;;;19.26;66.86;98214.25;5055309;28;20229;-70
2022/08/24 01:19:00;;;;;;;8.23;4.57;;;;;;;19.22;67.13;98213.16;5054815;28;20229;-70
2022/08/24 01:21:43;;;;;;;7.83;4.47;;;;;;;19.14;67.32;98218.25;5037284;28;20193;-70
2022/08/24 01:24:12;;;;;;;5.93;4.20;;;;;;;19.06;67.86;98219.63;5055301;28;20194;-70
2022/08/24 01:26:48;;;;;;;5.57;4.47;;;;;;;19.02;68.36;98217.72;5054903;28;20213;-70
2022/08/24 01:29:20;;;;;;;4.70;4.20;;;;;;;19.01;68.18;98222.28;5054714;28;20264;-70
2022/08/24 01:31:46;;;;;;;5.53;4.30;;;;;;;19.03;68.22;98217.44;5055179;28;20193;-70
2022/08/24 01:34:13;;;;;;;4.97;4.00;;;;;;;18.96;68.44;98222.28;5054682;28;20708;-70
2022/08/24 01:36:47;;;;;;;5.67;3.97;;;;;;;18.95;68.66;98220.66;5055050;28;20300;-70
2022/08/24 01:39:25;;;;;;;7.87;4.47;;;;;;;18.94;68.51;98216.38;5055515;28;20229;-70
2022/08/24 01:41:51;;;;;;;5.03;4.40;;;;;;;18.91;68.82;98221.50;5054901;28;20220;-70
2022/08/24 01:44:20;;;;;;;9.37;4.47;;;;;;;18.86;69.22;98230.34;5054875;28;20231;-70
2022/08/24 01:46:52;;;;;;;5.97;4.17;;;;;;;18.88;68.78;98227.41;5054535;28;20706;-70
2022/08/24 01:49:20;;;;;;;8.23;4.20;;;;;;;18.83;69.11;98232.78;5054458;28;20716;-70
2022/08/24 01:51:46;;;;;;;7.03;4.80;;;;;;;18.84;69.48;98235.22;5054652;28;20631;-70
2022/08/24 01:54:14;;;;;;;5.87;4.30;;;;;;;18.86;69.23;98237.66;5054414;28;20288;-70
2022/08/24 01:56:41;;;;;;;7.83;5.27;;;;;;;18.75;69.56;98228.75;5054306;28;20740;-70
2022/08/24 01:59:07;;;;;;;9.43;5.50;;;;;;;18.77;69.74;98234.66;5054571;28;20225;-70
2022/08/24 02:01:38;;;;;;;7.03;5.30;;;;;;;18.74;70.16;98234.38;5054797;28;20205;-70
2022/08/24 02:04:06;;;;;;;7.20;5.00;;;;;;;18.79;69.63;98227.13;5055069;28;20199;-70
2022/08/24 02:06:33;;;;;;;9.37;5.13;;;;;;;18.77;69.90;98231.97;5054422;28;20212;-70
2022/08/24 02:09:00;;;;;;;6.53;5.20;;;;;;;18.71;69.93;98230.34;5054380;28;20316;-70
2022/08/24 02:11:27;;;;;;;6.57;5.77;;;;;;;18.72;70.07;98236.50;5053935;28;20667;-70
2022/08/24 02:13:54;;;;;;;5.87;5.07;;;;;;;18.73;70.03;98227.38;5054320;28;20211;-70
2022/08/24 02:16:20;;;;;;;7.07;4.77;;;;;;;18.66;70.33;98238.41;5053769;28;20590;-70
2022/08/24 02:18:47;;;;;;;7.77;5.77;;;;;;;18.63;70.62;98238.13;5053670;28;20697;-70
2022/08/24 02:21:15;;;;;;;8.03;5.20;;;;;;;18.60;70.85;98242.16;5054153;28;20211;-70
2022/08/24 02:23:42;;;;;;;5.63;5.13;;;;;;;18.58;70.90;98244.31;5054022;28;20616;-70
2022/08/24 02:26:11;;;;;;;5.37;4.87;;;;;;;18.55;71.22;98244.81;5053673;28;20205;-71
2022/08/24 02:28:39;;;;;;;6.43;5.40;;;;;;;18.56;71.12;98246.47;5054015;28;20205;-70
2022/08/24 02:31:07;;;;;;;5.60;5.10;;;;;;;18.52;71.58;98245.38;5053706;28;20303;-70
2022/08/24 02:33:35;;;;;;;7.87;5.43;;;;;;;18.43;71.83;98248.84;5053930;28;20211;-70
2022/08/24 02:36:02;;;;;;;7.40;5.30;;;;;;;18.34;72.19;98248.53;5053853;28;20315;-70
2022/08/24 02:38:28;;;;;;;6.00;5.17;;;;;;;18.31;72.36;98249.03;5053902;28;20220;-70
2022/08/24 02:40:55;;;;;;;6.70;5.00;;;;;;;18.24;72.65;98250.34;5054735;28;20324;-70
2022/08/24 02:43:22;;;;;;;5.53;4.90;;;;;;;18.26;72.89;98248.19;5053783;28;20243;-70
2022/08/24 02:45:48;;;;;;;7.40;5.43;;;;;;;18.12;73.42;98255.13;5053694;28;20296;-70
2022/08/24 02:48:15;;;;;;;6.50;5.33;;;;;;;18.11;73.53;98243.56;5053675;28;20288;-70
2022/08/24 02:50:44;;;;;;;7.53;4.67;;;;;;;18.08;73.74;98236.00;5053242;28;20734;-70
2022/08/24 02:53:13;;;;;;;7.67;5.00;;;;;;;18.12;73.58;98237.13;5053370;28;20211;-70
2022/08/24 02:55:41;;;;;;;8.93;4.80;;;;;;;18.08;73.93;98237.88;5053545;28;20228;-70
2022/08/24 02:58:10;;;;;;;7.73;5.30;;;;;;;18.09;73.74;98240.31;5053614;28;20580;-70
2022/08/24 03:00:38;;;;;;;6.97;5.13;;;;;;;17.99;73.78;98237.59;5053402;28;20232;-70
2022/08/24 03:03:06;;;;;;;6.33;4.67;;;;;;;17.96;74.30;98240.78;5053093;28;20209;-70
2022/08/24 03:05:33;;;;;;;7.97;5.30;;;;;;;17.90;74.59;98235.63;5053432;28;20238;-70
2022/08/24 03:07:59;;;;;;;8.63;5.03;;;;;;;17.81;75.19;98237.19;5053447;28;20208;-70
2022/08/24 03:10:26;;;;;;;9.13;5.80;;;;;;;17.68;75.61;98237.66;5053318;28;20232;-70
2022/08/24 03:12:53;;;;;;;7.73;5.00;;;;;;;17.72;75.63;98236.06;5052968;28;20652;-70
2022/08/24 03:15:21;;;;;;;6.80;5.03;;;;;;;17.71;75.57;98235.28;5053130;28;20225;-70
2022/08/24 03:17:48;;;;;;;8.40;5.30;;;;;;;17.71;75.70;98232.59;5053151;28;20205;-70
2022/08/24 03:20:19;;;;;;;6.47;5.47;;;;;;;17.65;76.04;98227.44;5053258;28;20404;-70
2022/08/24 03:22:46;;;;;;;5.67;5.17;;;;;;;17.59;76.53;98231.97;5053112;28;20272;-70
2022/08/24 03:25:14;;;;;;;6.83;5.27;;;;;;;17.67;76.26;98236.88;5053194;28;20231;-70
2022/08/24 03:27:41;;;;;;;6.30;5.70;;;;;;;17.68;76.25;98238.47;5053920;28;20296;-70
2022/08/24 03:30:11;;;;;;;6.67;5.07;;;;;;;17.72;76.21;98234.22;5056608;28;20271;-70
2022/08/24 03:32:38;;;;;;;5.93;5.30;;;;;;;17.72;76.11;98225.31;5057697;28;20194;-70
2022/08/24 03:35:05;;;;;;;7.80;4.83;;;;;;;17.74;76.45;98225.88;5056675;28;20583;-70
2022/08/24 03:37:32;;;;;;;9.13;4.93;;;;;;;17.70;76.18;98228.28;5056785;28;20668;-70
2022/08/24 03:39:59;;;;;;;7.03;5.47;;;;;;;17.70;76.38;98220.22;5056529;28;20240;-70
2022/08/24 03:42:26;;;;;;;7.50;5.37;;;;;;;17.74;76.40;98223.19;5056634;28;20205;-70
2022/08/24 03:44:52;;;;;;;5.90;4.80;;;;;;;17.67;76.71;98222.59;5057412;28;20299;-70
2022/08/24 03:47:19;;;;;;;7.07;5.40;;;;;;;17.60;76.84;98227.41;5056886;28;20296;-70
2022/08/24 03:49:45;;;;;;;6.10;5.10;;;;;;;17.56;77.00;98232.47;5056888;28;20666;-70
2022/08/24 03:52:12;;;;;;;6.43;5.00;;;;;;;17.56;76.96;98226.31;5056498;28;20618;-70
2022/08/24 03:54:38;;;;;;;7.17;4.93;;;;;;;17.51;76.96;98223.59;5056375;28;20405;-70
2022/08/24 03:57:04;;;;;;;5.73;5.00;;;;;;;17.44;77.08;98237.25;5056420;28;20208;-70
2022/08/24 03:59:31;;;;;;;6.30;4.80;;;;;;;17.43;76.96;98238.31;5056524;28;20268;-70
2022/08/24 04:01:57;;;;;;;6.00;4.97;;;;;;;17.39;77.06;98231.84;5056470;28;20212;-70
2022/08/24 04:04:24;;;;;;;8.33;4.97;;;;;;;17.36;76.80;98235.00;5056254;28;20209;-70
2022/08/24 04:06:51;;;;;;;6.90;4.70;;;;;;;17.33;76.89;98232.03;5056640;28;20207;-70
2022/08/24 04:09:18;;;;;;;6.97;4.50;;;;;;;17.36;76.69;98235.00;5056583;28;20232;-70
2022/08/24 04:11:45;;;;;;;5.33;4.73;;;;;;;17.33;76.53;98230.13;5056593;28;20205;-70
2022/08/24 04:14:13;;;;;;;7.87;4.70;;;;;;;17.32;76.70;98235.78;5056078;28;20203;-70
2022/08/24 04:16:39;;;;;;;7.13;4.17;;;;;;;17.30;76.23;98233.34;5056218;28;20320;-70
2022/08/24 04:19:05;;;;;;;6.10;4.50;;;;;;;17.35;75.89;98236.06;5056232;28;20226;-70
2022/08/24 04:21:35;;;;;;;6.77;4.27;;;;;;;17.34;76.08;98236.31;5055961;28;20651;-70
2022/08/24 04:24:02;;;;;;;6.60;4.27;;;;;;;17.27;76.39;98239.22;5055894;28;20213;-70
2022/08/24 04:26:30;;;;;;;6.10;4.27;;;;;;;17.31;76.05;98234.97;5056204;28;20292;-70
2022/08/24 04:28:58;;;;;;;7.83;4.70;;;;;;;17.33;75.69;98232.81;5056345;28;20210;-70
2022/08/24 04:31:25;;;;;;;10.30;4.73;;;;;;;17.44;74.82;98241.81;5055660;28;20641;-70
2022/08/24 04:33:52;;;;;;;7.20;4.63;;;;;;;17.52;74.76;98249.41;5055915;28;20209;-70
2022/08/24 04:36:21;;;;;;;7.23;4.60;;;;;;;17.47;74.99;98241.28;5055806;28;20225;-70
2022/08/24 04:38:48;;;;;;;6.57;4.60;;;;;;;17.47;74.99;98241.28;5055413;28;20566;-70
2022/08/24 04:41:18;;;;;;;7.67;4.83;;;;;;;17.53;74.59;98253.69;5054526;28;20668;-70
2022/08/24 04:43:46;;;;;;;8.50;4.20;;;;;;;17.44;74.99;98250.69;5055634;28;20580;-70
2022/08/24 04:46:15;;;;;;;7.13;5.13;;;;;;;17.40;75.27;98256.81;5055493;28;20297;-70
2022/08/24 04:48:44;;;;;;;8.47;5.00;;;;;;;17.43;75.40;98250.94;5055235;28;20208;-70
2022/08/24 04:51:12;;;;;;;7.43;4.67;;;;;;;17.44;75.27;98256.06;5055185;28;20214;-70
2022/08/24 04:53:40;;;;;;;8.40;4.90;;;;;;;17.43;75.78;98261.69;5055389;28;20308;-70
2022/08/24 04:56:13;;;;;;;6.70;4.93;;;;;;;17.48;75.90;98269.78;5055091;28;20666;-70
2022/08/24 04:58:39;;;;;;;8.67;5.53;;;;;;;17.52;75.70;98268.22;5055478;28;20193;-70
2022/08/24 05:01:15;;;;;;;8.80;5.77;;;;;;;17.52;75.84;98268.22;5056091;28;20209;-70
2022/08/24 05:03:44;;;;;;;7.27;5.47;;;;;;;17.48;75.70;98264.41;5055475;28;20189;-70
2022/08/24 05:06:13;;;;;;;11.43;5.70;;;;;;;17.50;75.74;98265.00;5056133;28;20258;-70
2022/08/24 05:08:40;;;;;;;7.20;5.40;;;;;;;17.56;75.78;98275.50;5054984;28;20742;-71
2022/08/24 05:11:07;;;;;;;7.93;5.30;;;;;;;17.60;75.38;98273.91;5054584;28;20292;-70
2022/08/24 05:13:34;;;;;;;8.70;5.53;;;;;;;17.68;75.12;98276.13;5054595;28;20734;-70
2022/08/24 05:16:01;;;;;;;8.40;5.23;;;;;;;17.77;74.59;98279.13;5054977;28;20229;-70
2022/08/24 05:18:28;;;;;;;7.37;4.70;;;;;;;17.68;74.81;98273.44;5055064;28;20599;-70
2022/08/24 05:20:55;;;;;;;5.57;4.73;;;;;;;17.74;74.36;98272.38;5054631;28;20635;-70
2022/08/24 05:23:22;;;;;;;7.80;4.63;;;;;;;17.74;74.69;98277.78;5054492;28;20291;-70
2022/08/24 05:25:49;;;;;;;7.50;4.67;;;;;;;17.94;74.12;98277.91;5054828;28;20209;-70
2022/08/24 05:28:15;;;;;;;5.63;4.50;;;;;;;18.04;73.45;98277.97;5054536;28;20206;-70
2022/08/24 05:30:42;;;;;;;8.97;4.43;;;;;;;18.10;73.26;98271.53;5054250;28;20586;-70
2022/08/24 05:33:08;;;;;;;5.10;4.13;;;;;;;18.13;72.84;98279.09;5054642;28;20300;-70
2022/08/24 05:35:39;;;;;;;7.03;4.50;;;;;;;18.16;72.64;98275.88;5054243;28;20696;-70
2022/08/24 05:38:05;;;;;;;6.57;4.60;;;;;;;18.27;72.06;98271.38;5054350;28;20205;-70
2022/08/24 05:40:32;;;;;;;4.70;4.20;;;;;;;18.26;71.37;98273.22;5054664;28;20243;-70
2022/08/24 05:42:58;;;;;;;7.67;5.03;;;;;;;18.33;71.52;98276.50;5054389;28;20227;-70
2022/08/24 05:45:25;;;;;;;4.83;4.33;;;;;;;18.40;70.99;98276.28;5053881;28;20197;-70
2022/08/24 05:47:51;;;;;;;7.67;4.03;;;;;;;18.41;70.53;98277.91;5054127;28;20295;-70
2022/08/24 05:50:18;;;;;;;6.63;4.40;;;;;;;18.48;70.17;98279.28;5054075;28;20314;-70
2022/08/24 05:52:44;;;;;;;10.07;4.77;;;;;;;18.52;69.95;98283.06;5053189;28;20209;-70
2022/08/24 05:55:11;;;;;;;6.87;4.67;;;;;;;18.58;70.01;98284.69;5054113;28;20300;-70
2022/08/24 05:57:37;;;;;;;6.83;4.63;;;;;;;18.59;69.98;98291.69;5054332;28;20291;-70
2022/08/24 06:00:08;;;;;;;7.37;4.30;;;;;;;18.69;69.74;98299.00;5054201;28;20232;-70
2022/08/24 06:02:34;;;;;;;8.93;4.60;;;;;;;18.73;69.26;98300.09;5054011;28;20186;-70
2022/08/24 06:05:01;;;;;;;8.60;4.60;;;;;;;18.79;69.40;98299.84;5054141;28;20205;-70
2022/08/24 06:07:27;;;;;;;8.83;4.90;;;;;;;18.85;69.00;98300.66;5053651;28;20664;-70
2022/08/24 06:09:54;;;;;;;7.43;4.40;;;;;;;19.05;67.94;98298.03;5053855;28;20235;-70
2022/08/24 06:12:20;;;;;;;5.83;4.43;;;;;;;19.02;68.13;98296.69;5053715;28;20311;-70
2022/08/24 06:14:47;;;;;;;8.63;4.80;;;;;;;19.05;67.29;98300.72;5053671;28;20292;-70
2022/08/24 06:17:13;;;;;;;6.37;4.50;;;;;;;18.94;67.91;98294.50;5053663;28;20225;-70
2022/08/24 06:19:41;;;;;;;10.53;4.70;;;;;;;19.00;67.54;98301.50;5053484;28;20343;-70
2022/08/24 06:22:08;;;;;;;6.73;4.73;;;;;;;19.05;67.51;98301.50;5054051;28;20262;-70
2022/08/24 06:27:24;;;;;;;6.07;5.10;;;;;;;18.99;67.46;98296.38;5053790;28;20184;-70
2022/08/24 06:30:02;;;;;;;5.63;4.13;;;;;;;19.18;67.01;98292.13;5052831;28;20273;-70
2022/08/24 06:32:29;;;;;;;6.60;5.50;;;;;;;19.21;66.91;98292.38;5053749;28;20679;-70
2022/08/24 06:34:57;;;;;;;7.57;5.37;;;;;;;19.25;66.68;98290.81;5053514;28;20209;-70
2022/08/24 06:37:25;;;;;;;8.20;5.53;;;;;;;19.28;66.96;98292.94;5052785;28;20705;-70
2022/08/24 06:39:56;;;;;;;13.13;5.83;;;;;;;19.30;66.86;98296.19;5053130;28;20228;-70
2022/08/24 06:42:24;;;;;;;8.77;5.40;;;;;;;19.40;66.46;98296.19;5053453;28;20527;-70
2022/08/24 06:44:51;;;;;;;7.90;6.10;;;;;;;19.45;65.69;98295.41;5053476;28;20209;-70
2022/08/24 06:47:19;;;;;;;8.60;5.57;;;;;;;19.52;65.72;98296.75;5053276;28;20225;-70
2022/08/24 06:49:45;;;;;;;9.60;5.37;;;;;;;19.77;65.65;98299.41;5053315;28;20387;-70
2022/08/24 06:52:11;;;;;;;9.03;6.03;;;;;;;19.80;64.51;98302.66;5053294;28;20300;-71
2022/08/24 06:54:38;;;;;;;9.23;6.27;;;;;;;19.86;64.52;98301.56;5053226;28;20639;-69
2022/08/24 06:57:06;;;;;;;7.90;5.00;;;;;;;20.09;63.56;98303.72;5053169;28;20221;-70
2022/08/24 06:59:33;;;;;;;12.03;5.70;;;;;;;20.06;63.25;98304.22;5052731;28;20225;-70
2022/08/24 07:02:00;;;;;;;10.03;5.03;;;;;;;20.18;62.80;98304.78;5053073;28;20292;-70
2022/08/24 07:04:27;;;;;;;8.93;5.17;;;;;;;20.16;62.77;98309.66;5052592;28;20211;-70
2022/08/24 07:06:55;;;;;;;6.57;5.20;;;;;;;20.20;63.00;98308.81;5052853;28;20197;-70
2022/08/24 07:09:23;;;;;;;10.70;6.20;;;;;;;20.52;62.41;98311.16;5052719;28;20243;-70
2022/08/24 07:11:50;;;;;;;10.13;6.23;;;;;;;20.72;61.56;98313.75;5053229;28;20601;-70
2022/08/24 07:14:17;;;;;;;11.30;6.00;;;;;;;20.80;61.59;98313.19;5052946;28;20280;-70
2022/08/24 07:16:44;;;;;;;10.67;6.47;;;;;;;20.84;62.08;98319.66;5052805;28;20591;-70
2022/08/24 07:19:10;;;;;;;8.40;5.77;;;;;;;21.06;60.84;98317.38;5052323;28;20275;-70
2022/08/24 07:21:36;;;;;;;10.40;5.33;;;;;;;21.09;60.44;98319.53;5052671;28;20215;-70
2022/08/24 07:24:05;;;;;;;9.37;5.63;;;;;;;21.02;60.15;98321.75;5052991;28;20251;-70
2022/08/24 07:26:32;;;;;;;8.57;5.40;;;;;;;21.10;60.20;98310.34;5052684;28;20572;-70
2022/08/24 07:29:10;;;;;;;10.17;4.80;;;;;;;21.21;59.59;98312.69;5052491;28;20674;-70
2022/08/24 07:31:39;;;;;;;9.43;5.37;;;;;;;21.12;59.17;98327.09;5052709;28;20189;-70
2022/08/24 07:34:07;;;;;;;8.77;5.47;;;;;;;21.22;60.22;98322.44;5052771;28;20211;-69
2022/08/24 07:36:35;;;;;;;15.70;6.07;;;;;;;21.28;59.77;98329.44;5053059;28;20316;-70
2022/08/24 07:39:03;;;;;;;10.63;6.30;;;;;;;21.48;57.96;98331.97;5052817;28;20319;-70
2022/08/24 07:41:30;;;;;;;6.63;5.33;;;;;;;21.48;57.93;98331.19;5053088;28;20205;-70
2022/08/24 07:43:57;;;;;;;9.00;5.57;;;;;;;21.55;57.73;98335.19;5052861;28;20611;-70
2022/08/24 07:46:24;;;;;;;6.30;4.83;;;;;;;21.84;56.29;98335.25;5052616;28;20660;-70
2022/08/24 07:48:50;;;;;;;7.43;4.93;;;;;;;21.73;56.25;98337.25;5052548;28;20240;-70
2022/08/24 07:51:19;;;;;;;6.37;4.50;;;;;;;21.99;55.06;98335.94;5052584;28;20291;-69
2022/08/24 07:53:45;;;;;;;5.10;3.63;;;;;;;22.09;52.71;98338.53;5052548;28;20209;-70
2022/08/24 07:56:13;;;;;;;4.33;2.77;;;;;;;22.25;50.99;98336.47;5052698;28;20225;-71
2022/08/24 07:58:39;;;;;;;11.67;8.10;;;;;;;22.09;51.14;98335.00;5051973;28;20205;-71
2022/08/24 08:01:07;;;;;;;7.30;4.07;;;;;;;22.28;50.86;98335.88;5052220;28;20248;-70
2022/08/24 08:03:33;;;;;;;4.30;3.30;;;;;;;22.40;50.83;98344.44;5052492;28;20244;-70
2022/08/24 08:06:03;;;;;;;6.43;4.50;;;;;;;22.57;49.79;98344.81;5052364;28;20231;-70
2022/08/24 08:08:31;;;;;;;3.03;2.73;;;;;;;22.64;50.40;98343.38;5052496;28;20295;-70
2022/08/24 08:10:58;;;;;;;4.33;2.80;;;;;;;22.71;50.23;98345.75;5052694;28;20225;-70
2022/08/24 08:13:24;;;;;;;2.93;2.63;;;;;;;22.74;50.37;98339.75;5052966;28;20201;-70
2022/08/24 08:15:51;;;;;;;4.90;3.60;;;;;;;22.79;50.39;98348.59;5054538;28;20289;-70
2022/08/24 08:18:19;;;;;;;4.17;3.10;;;;;;;22.90;49.76;98341.97;5056436;28;20216;-70
2022/08/24 08:20:46;;;;;;;5.10;2.90;;;;;;;22.86;50.09;98334.69;5056315;28;20232;-70
2022/08/24 08:25:57;;;;;;;6.35;2.75;;;;;;;23.20;48.25;98340.78;5056012;28;20258;-70
2022/08/24 08:28:25;;;;;;;5.50;2.90;;;;;;;23.13;48.06;98337.59;5056129;28;20209;-69
2022/08/24 08:30:52;;;;;;;5.32;2.72;;;;;;;23.48;47.02;98334.38;5055329;28;20324;-70
2022/08/24 08:33:18;;;;;;;3.30;2.85;;;;;;;23.41;46.72;98326.63;5055503;28;20303;-70
2022/08/24 08:35:45;;;;;;;4.50;2.70;;;;;;;23.46;47.38;98331.16;5055923;28;20205;-69
2022/08/24 08:38:11;;;;;;;5.65;3.72;;;;;;;23.38;48.00;98331.84;5055511;28;20636;-70
2022/08/24 08:40:54;;;;;;;6.95;3.58;;;;;;;23.37;47.31;98330.19;5055521;28;20775;-69
2022/08/24 08:43:42;;;;;;;5.50;2.80;;;;;;;23.77;46.34;98326.84;5055960;28;20293;-69
2022/08/24 08:46:34;;;;;;;4.18;2.25;;;;;;;23.93;44.89;98325.53;5038335;28;20641;-69
2022/08/24 08:49:03;;;;;;;4.53;2.30;;;;;;;23.90;43.80;98323.41;5055701;28;20316;-70
2022/08/24 08:51:59;;;;;;;4.45;2.25;;;;;;;23.79;43.88;98319.22;5055630;28;20212;-70
2022/08/24 08:54:51;;;;;;;3.15;2.40;;;;;;;24.13;43.79;98320.56;5040779;28;20687;-69
2022/08/24 08:57:24;;;;;;;4.03;2.42;;;;;;;24.21;42.15;98311.72;5040692;28;20300;-70
2022/08/24 09:00:03;;;;;;;3.00;1.90;;;;;;;24.26;42.62;98318.94;5055279;28;20268;-70
2022/08/24 09:02:52;;;;;;;7.53;5.18;;;;;;;24.36;41.88;98314.13;5055359;28;20208;-70
2022/08/24 09:05:51;;;;;;;3.63;2.15;;;;;;;24.66;40.82;98308.13;5055566;28;20280;-70
2022/08/24 09:08:56;;;;;;;2.60;2.40;;;;;;;24.45;41.88;98316.94;5055028;28;20644;-69
2022/08/24 09:11:25;;;;;;;4.13;2.20;;;;;;;24.67;41.26;98317.06;5054940;28;20186;-70
2022/08/24 09:14:28;;;;;;;4.55;2.50;;;;;;;24.98;40.51;98307.16;5054959;28;20213;-70
2022/08/24 09:17:29;;;;;;;5.18;3.35;;;;;;;24.91;40.06;98314.94;5055063;28;20312;-70
2022/08/24 09:20:50;;;;;;;2.63;1.80;;;;;;;25.29;39.88;98311.63;5036999;28;20229;-70
2022/08/24 09:23:31;;;;;;;6.95;2.17;;;;;;;25.43;38.54;98311.59;4993283;28;20550;-70
2022/08/24 09:26:09;;;;;;;2.95;1.88;;;;;;;25.85;38.79;98324.72;5048329;28;20216;-69
2022/08/24 09:29:11;;;;;;;2.45;1.92;;;;;;;25.66;39.19;98310.50;5054828;28;20264;-69
2022/08/24 09:32:03;;;;;;;2.90;2.10;;;;;;;25.82;38.81;98309.81;4973938;28;20668;-70
2022/08/24 09:34:59;;;;;;;6.07;4.50;;;;;;;25.70;38.53;98304.09;5052777;28;20300;-69
2022/08/24 09:37:54;;;;;;;1.70;1.60;;;;;;;26.31;37.52;98301.44;5054818;28;20309;-70
2022/08/24 09:41:03;;;;;;;2.35;1.60;;;;;;;26.42;35.49;98304.72;5054296;28;20232;-70
2022/08/24 09:43:39;;;;;;;3.20;1.90;;;;;;;25.97;36.68;98298.53;4973550;28;20215;-69
2022/08/24 09:46:11;;;;;;;3.50;2.95;;;;;;;26.41;36.81;98306.63;5042972;28;20287;-70
2022/08/24 09:49:28;;;;;;;2.15;1.90;;;;;;;26.72;36.93;98309.31;5054199;28;20205;-69
2022/08/24 09:52:09;;;;;;;2.80;2.60;;;;;;;26.98;36.35;98306.66;4954546;28;20222;-70
2022/08/24 09:54:47;;;;;;;3.95;1.80;;;;;;;27.11;36.06;98303.78;5054540;28;20196;-70
2022/08/24 09:57:42;;;;;;;2.00;1.80;;;;;;;26.86;36.32;98301.81;5054283;28;20229;-70
2022/08/24 10:00:17;;;;;;;1.90;1.60;;;;;;;26.90;35.58;98305.50;5039355;28;20229;-70
2022/08/24 10:03:08;;;;;;;3.53;2.58;;;;;;;26.92;36.33;98303.28;5053993;28;20635;-70
2022/08/24 10:05:47;;;;;;;1.85;1.75;;;;;;;27.04;36.04;98304.25;5036426;28;20276;-71
2022/08/24 10:08:27;;;;;;;3.22;1.88;;;;;;;27.10;36.59;98302.97;5053826;28;20236;-70
2022/08/24 10:11:15;;;;;;;3.03;2.40;;;;;;;27.12;36.10;98299.94;5054551;28;20308;-71
2022/08/24 10:14:03;;;;;;;2.95;2.75;;;;;;;27.00;36.11;98297.03;5053986;28;20240;-70
2022/08/24 10:16:48;;;;;;;4.70;2.72;;;;;;;26.65;37.06;98293.41;5053621;28;20292;-71
2022/08/24 10:19:27;;;;;;;2.25;2.05;;;;;;;27.07;35.31;98294.63;5053989;28;20320;-70
2022/08/24 10:22:10;;;;;;;1.42;1.42;;;;;;;27.20;33.33;98288.25;5054112;28;20197;-70
2022/08/24 10:25:07;;;;;;;1.55;1.45;;;;;;;27.55;33.08;98280.84;5036175;28;20664;-70
2022/08/24 10:27:49;;;;;;;1.77;1.67;;;;;;;27.70;32.66;98280.34;5053875;28;20299;-70
2022/08/24 10:30:39;;;;;;;1.58;1.48;;;;;;;27.95;32.64;98277.59;5053465;28;20233;-70
2022/08/24 10:33:22;;;;;;;1.65;1.50;;;;;;;27.81;32.74;98273.47;5053504;28;20655;-70
2022/08/24 10:36:07;;;;;;;2.10;1.50;;;;;;;27.98;31.83;98268.75;5053680;28;20217;-70
2022/08/24 10:45:40;;;;;;;1.70;1.60;;;;;;;28.08;30.79;98248.47;5053651;28;20181;-70
2022/08/24 10:48:43;;;;;;;1.38;1.30;;;;;;;28.06;30.98;98258.91;5053572;28;20181;-70
2022/08/24 10:51:35;;;;;;;1.63;1.52;;;;;;;28.37;30.22;98254.78;5035324;28;20655;-70
2022/08/24 10:54:02;;;;;;;1.48;1.38;;;;;;;28.45;30.05;98250.41;5053353;28;20235;-70
2022/08/24 10:57:00;;;;;;;1.40;1.27;;;;;;;28.72;30.47;98256.22;5052735;28;20205;-70
2022/08/24 10:59:39;;;;;;;2.10;1.35;;;;;;;28.70;30.23;98246.72;5045695;28;20734;-70
2022/08/24 11:02:32;;;;;;;1.48;1.38;;;;;;;28.70;30.67;98252.19;5052888;28;20672;-70
2022/08/24 11:05:01;;;;;;;1.50;1.40;;;;;;;28.69;30.44;98247.84;5053992;28;20189;-70
2022/08/24 11:07:28;;;;;;;1.75;1.33;;;;;;;28.60;29.68;98253.38;5052902;28;20208;-70
2022/08/24 11:09:58;;;;;;;1.85;1.73;;;;;;;28.60;29.69;98255.31;5053072;28;20221;-70
2022/08/24 11:12:32;;;;;;;4.13;2.72;;;;;;;28.51;30.93;98243.63;5053982;28;20211;-70
2022/08/24 11:15:19;;;;;;;3.03;1.45;;;;;;;28.61;30.47;98246.78;5052924;28;20241;-70
2022/08/24 11:18:04;;;;;;;1.65;1.52;;;;;;;28.72;31.06;98245.28;5053255;28;20235;-70
2022/08/24 11:20:35;;;;;;;1.92;1.40;;;;;;;29.01;30.85;98250.75;5052768;28;20729;-70
2022/08/24 11:23:04;;;;;;;5.03;1.60;;;;;;;29.20;30.59;98259.28;5053978;28;20189;-70
2022/08/24 11:25:33;;;;;;;1.75;1.65;;;;;;;29.23;29.84;98244.94;5053442;28;20656;-70
2022/08/24 11:28:25;;;;;;;3.45;1.63;;;;;;;29.30;29.52;98239.69;5052903;28;20225;-70
2022/08/24 11:30:51;;;;;;;4.55;1.48;;;;;;;29.38;29.08;98236.09;5053516;28;20704;-71
2022/08/24 11:33:29;;;;;;;2.40;1.60;;;;;;;29.50;28.82;98233.41;5053029;28;20299;-70
2022/08/24 11:35:58;;;;;;;1.80;1.52;;;;;;;29.41;28.70;98240.91;5052982;28;20189;-70
2022/08/24 11:38:30;;;;;;;1.77;1.50;;;;;;;29.14;29.04;98246.94;5052528;28;20267;-70
2022/08/24 11:41:25;;;;;;;1.65;1.27;;;;;;;29.29;29.20;98237.28;5052707;28;20316;-70
2022/08/24 11:43:54;;;;;;;1.45;1.35;;;;;;;29.00;30.09;98231.91;5052915;28;20196;-70
2022/08/24 11:46:45;;;;;;;2.95;1.50;;;;;;;29.14;30.17;98238.72;5052313;28;20278;-70
2022/08/24 11:49:27;;;;;;;1.38;1.27;;;;;;;29.36;29.48;98235.63;5035460;28;20236;-70
2022/08/24 11:52:03;;;;;;;1.60;1.55;;;;;;;29.41;30.25;98235.41;5056983;28;20205;-70
2022/08/24 11:54:38;;;;;;;1.83;1.73;;;;;;;29.37;29.14;98233.69;5040074;28;20228;-71
2022/08/24 11:57:20;;;;;;;2.50;1.98;;;;;;;29.05;29.79;98239.91;5022794;28;20205;-71
2022/08/24 11:59:52;;;;;;;1.90;1.73;;;;;;;29.26;29.36;98241.50;5022885;28;20738;-71
2022/08/24 12:02:27;;;;;;;1.48;1.38;;;;;;;29.34;29.57;98235.16;5039640;28;20531;-71
2022/08/24 12:05:03;;;;;;;2.22;1.50;;;;;;;29.18;29.70;98238.84;5056626;28;20189;-71
2022/08/24 12:07:45;;;;;;;1.45;1.38;;;;;;;29.36;29.90;98226.59;5039756;28;20239;-70
2022/08/24 12:10:23;;;;;;;1.80;1.40;;;;;;;29.37;28.79;98234.50;5056577;28;20308;-71